CST,Max TemperatureF,Mean TemperatureF,Min TemperatureF,Max Dew PointF,MeanDew PointF,Min DewpointF,Max Humidity, Mean Humidity, Min Humidity, Max Sea Level PressureIn, Mean Sea Level PressureIn, Min Sea Level PressureIn, Max VisibilityMiles, Mean VisibilityMiles, Min VisibilityMiles, Max Wind SpeedMPH, Mean Wind SpeedMPH, Max Gust SpeedMPH,PrecipitationIn, CloudCover, Events, WindDirDegrees
2014-3-1,85,78,72,77,72,69,92,74,58,30.08,30.03,29.97,14,9,6,10,5,,0.00,2,,96
2014-3-2,86,80,73,73,71,68,89,70,54,30.07,30.01,29.96,12,8,6,14,6,,0.00,4,,86
2014-3-3,85,78,71,70,69,67,86,68,47,30.00,29.94,29.90,14,8,6,12,5,,0.00,2,,91
2014-3-4,86,79,72,73,72,69,89,74,53,29.98,29.92,29.86,14,8,6,9,5,,0.00,1,,113
2014-3-5,86,80,74,75,74,72,94,77,61,29.95,29.89,29.82,14,9,6,10,5,,0.00,3,,104
2014-3-6,92,82,73,77,74,69,100,74,38,29.95,29.89,29.81,14,8,4,13,3,,0.00,3,Rain-Thunderstorm,280
2014-3-7,84,78,71,72,70,68,94,75,53,30.04,29.98,29.93,14,8,6,12,8,,0.00,3,,38
2014-3-8,85,78,71,75,73,70,94,79,62,30.03,29.98,29.93,14,8,6,12,4,,0.00,4,Rain,107
2014-3-9,85,80,76,75,73,72,89,75,63,30.06,30.01,29.97,14,8,6,13,7,,0.00,3,,94
2014-3-10,84,79,74,75,74,72,94,79,68,30.06,29.99,29.92,14,8,6,12,6,,0.00,4,,97
2014-3-11,86,80,75,75,74,72,89,75,61,29.95,29.85,29.77,14,9,6,9,6,,0.00,4,,121
2014-3-12,87,80,73,77,75,72,94,77,63,29.88,29.83,29.79,14,8,6,10,4,,0.00,1,,68
2014-3-13,88,81,74,76,73,72,91,77,50,30.05,29.99,29.90,12,8,5,13,7,,0.12,4,Rain,352
2014-3-14,80,76,72,75,73,71,100,91,81,30.08,30.02,29.97,12,7,1,12,5,,1.34,6,Rain,229
2014-3-15,85,78,71,75,73,71,97,76,58,29.99,29.93,29.86,16,9,6,10,4,,0.00,3,Rain,110
2014-3-16,87,82,77,75,75,73,94,74,58,29.83,29.78,29.68,16,8,6,12,8,,0.00,2,,128
2014-3-17,92,82,73,77,74,70,100,76,41,29.81,29.76,29.67,14,6,0,16,7,,0.00,3,Fog,291
2014-3-18,82,74,67,72,63,60,100,65,41,30.01,29.95,29.88,14,8,6,9,6,,0.00,4,,329
2014-3-19,86,79,72,76,73,68,94,78,64,29.97,29.93,29.89,12,8,6,10,3,,0.00,4,,108
2014-3-20,86,81,76,75,74,73,91,74,62,30.00,29.96,29.92,14,8,6,14,8,,0.00,3,,88
2014-3-21,86,80,75,75,73,72,94,73,59,30.02,29.98,29.94,14,9,6,12,6,,0.00,3,,90
2014-3-22,86,80,74,77,74,72,89,74,57,30.01,29.96,29.92,12,8,6,12,6,,0.00,3,,106
2014-3-23,86,81,76,75,74,71,94,73,52,30.05,29.99,29.95,14,9,6,14,8,,0.00,4,,113
2014-3-24,87,81,75,74,72,71,89,71,52,30.01,29.96,29.89,14,9,6,9,5,,0.00,2,,112
2014-3-25,87,80,74,77,75,73,100,79,59,30.00,29.95,29.89,12,8,6,9,4,,0.00,2,,83
2014-3-26,86,80,74,77,74,72,97,77,60,30.07,30.02,29.97,14,8,6,12,5,,0.01,4,Rain,87
2014-3-27,88,84,79,75,73,72,83,68,55,30.05,29.99,29.92,14,8,6,15,10,,0.00,2,,116
2014-3-28,89,84,79,75,74,70,84,69,52,29.99,29.92,29.86,12,8,6,14,9,,0.00,1,,126
2014-3-29,88,82,76,75,72,68,89,67,47,29.98,29.93,29.88,14,9,6,10,7,,0.00,1,,118
2014-3-30,87,81,75,75,74,73,94,74,55,30.04,29.98,29.94,14,8,6,12,5,,0.00,3,,84
2014-3-31,87,80,73,75,74,72,94,77,59,30.03,29.98,29.94,19,9,6,10,5,,0.00,4,,101